Time;durP1;ratioP1;P1;durP2;ratioP2;P2;SDS_P1;SDS_P2;PMS_P1;PMS_P2;Temp;Humidity;BMP_temperature;BMP_pressure;BME280_temperature;BME280_humidity;BME280_pressure;Samples;Min_cycle;Max_cycle;Signal;HPM_P1;HPM_P2
2022/12/15 00:38:49;;;;;;;0.55;0.25;;;23.00;64.20;;;;;;5090660;28;20210;-82
2022/12/15 00:41:22;;;;;;;1.08;0.30;;;23.10;61.40;;;;;;5091421;28;20662;-84
2022/12/15 00:43:53;;;;;;;1.13;0.30;;;23.20;62.40;;;;;;5092414;28;20600;-83
2022/12/15 00:50:50;;;;;;;1.17;0.20;;;23.30;61.80;;;;;;5092706;28;20197;-83
2022/12/15 01:20:31;;;;;;;3.15;0.40;;;24.20;62.70;;;;;;5100205;28;20327;-84
2022/12/15 01:23:02;;;;;;;1.38;0.50;;;24.40;62.50;;;;;;5094694;28;20392;-83
2022/12/15 01:25:33;;;;;;;5.40;0.60;;;24.50;61.10;;;;;;5094117;28;20192;-83
2022/12/15 01:28:04;;;;;;;4.60;0.68;;;24.50;60.50;;;;;;5087327;28;20202;-84
2022/12/15 01:30:36;;;;;;;3.03;0.57;;;24.60;61.40;;;;;;5090767;28;20680;-84
2022/12/15 01:33:07;;;;;;;0.47;0.47;;;24.80;60.30;;;;;;5091730;28;20199;-84
2022/12/15 01:35:38;;;;;;;1.02;0.52;;;24.80;61.40;;;;;;5086573;28;20287;-84
2022/12/15 01:38:16;;;;;;;2.10;0.77;;;24.90;59.80;;;;;;5092186;28;20650;-84
2022/12/15 01:40:54;;;;;;;1.08;0.35;;;24.90;59.60;;;;;;5089212;28;20225;-85
2022/12/15 01:43:26;;;;;;;4.20;0.40;;;25.00;59.80;;;;;;5091125;28;20191;-84
2022/12/15 01:46:06;;;;;;;2.17;0.50;;;25.00;59.00;;;;;;5089954;28;20199;-85
2022/12/15 01:48:41;;;;;;;1.55;0.52;;;24.90;59.80;;;;;;5092071;28;20209;-84
2022/12/15 01:51:19;;;;;;;3.38;0.88;;;24.90;59.90;;;;;;5091395;28;20245;-84
2022/12/15 01:53:57;;;;;;;3.55;0.60;;;24.90;60.50;;;;;;5091467;28;20654;-84
2022/12/15 01:56:29;;;;;;;1.05;0.40;;;24.80;60.50;;;;;;5092080;28;20649;-84
2022/12/15 01:59:05;;;;;;;2.85;0.55;;;24.80;61.50;;;;;;5090919;28;20305;-84
2022/12/15 02:01:37;;;;;;;3.55;0.50;;;24.90;61.80;;;;;;5091282;28;20217;-84
2022/12/15 02:04:09;;;;;;;2.38;0.45;;;25.00;61.10;;;;;;5092910;28;20650;-84
2022/12/15 02:06:40;;;;;;;6.75;0.68;;;25.00;60.00;;;;;;5098645;28;20638;-83
2022/12/15 02:09:12;;;;;;;3.90;0.55;;;25.00;59.60;;;;;;5073533;28;20688;-84
2022/12/15 02:11:58;;;;;;;2.60;0.63;;;25.00;59.40;;;;;;5072352;28;20228;-83
2022/12/15 02:14:45;;;;;;;1.90;0.60;;;25.00;59.50;;;;;;5087719;28;20296;-83
2022/12/15 02:17:32;;;;;;;3.22;0.57;;;25.10;60.10;;;;;;5083097;28;20191;-83
2022/12/15 02:20:27;;;;;;;2.70;0.40;;;25.00;60.90;;;;;;5090519;28;20229;-83
2022/12/15 02:23:23;;;;;;;2.60;0.75;;;25.10;60.70;;;;;;5067829;28;20194;-83
2022/12/15 02:26:19;;;;;;;3.40;0.40;;;25.20;60.80;;;;;;5063739;28;20203;-84
2022/12/15 02:28:58;;;;;;;2.97;0.98;;;25.10;61.80;;;;;;5088778;28;20396;-83
2022/12/15 02:31:52;;;;;;;2.65;0.60;;;24.90;62.60;;;;;;5089665;28;20665;-84
2022/12/15 02:34:28;;;;;;;2.63;0.60;;;24.90;61.90;;;;;;5090371;28;20234;-83
2022/12/15 02:37:02;;;;;;;3.45;0.93;;;24.80;62.80;;;;;;5090770;28;20690;-84
2022/12/15 02:39:33;;;;;;;2.78;0.82;;;24.90;63.60;;;;;;5091188;28;20211;-83
2022/12/15 02:42:03;;;;;;;2.75;0.80;;;25.00;63.50;;;;;;5087771;28;20199;-84
2022/12/15 02:44:39;;;;;;;3.60;0.90;;;25.20;64.40;;;;;;5090524;28;20202;-83
2022/12/15 02:47:24;;;;;;;4.40;0.90;;;25.20;65.00;;;;;;5088111;28;20219;-84
2022/12/15 02:50:12;;;;;;;3.45;0.60;;;25.20;64.10;;;;;;5093573;28;20205;-83
2022/12/15 02:52:55;;;;;;;4.13;1.02;;;25.20;63.00;;;;;;5079533;28;20580;-83
2022/12/15 02:55:36;;;;;;;6.07;1.10;;;25.40;63.30;;;;;;5083821;28;20562;-83
2022/12/15 02:58:12;;;;;;;5.05;0.80;;;25.70;65.00;;;;;;5087099;28;20195;-82
2022/12/15 03:00:47;;;;;;;6.22;1.02;;;25.60;62.70;;;;;;5082889;28;20222;-83
2022/12/15 03:03:22;;;;;;;5.97;1.70;;;25.80;61.90;;;;;;5088961;28;20230;-83
2022/12/15 03:05:54;;;;;;;4.35;1.00;;;25.80;63.00;;;;;;5090946;28;20193;-83
2022/12/15 03:08:25;;;;;;;3.78;1.58;;;25.80;64.40;;;;;;5091576;28;20286;-83
2022/12/15 03:10:57;;;;;;;4.82;1.48;;;25.70;64.50;;;;;;5090138;28;20291;-83
2022/12/15 03:13:28;;;;;;;7.63;1.50;;;25.60;64.00;;;;;;5089964;28;20559;-83
2022/12/15 03:15:58;;;;;;;5.38;1.40;;;25.50;63.20;;;;;;5088405;28;20222;-83
2022/12/15 03:18:33;;;;;;;3.75;1.08;;;25.70;63.70;;;;;;5088980;28;20203;-83
2022/12/15 03:21:03;;;;;;;6.13;1.20;;;25.70;62.30;;;;;;5090257;28;20646;-83
2022/12/15 03:23:34;;;;;;;4.85;0.90;;;25.80;63.20;;;;;;5089765;28;20205;-83
2022/12/15 03:26:05;;;;;;;4.07;1.00;;;25.70;61.80;;;;;;5090501;28;20597;-83
2022/12/15 03:28:36;;;;;;;3.92;1.10;;;25.80;63.20;;;;;;5093059;28;20199;-83
2022/12/15 03:31:07;;;;;;;4.43;1.08;;;25.90;62.70;;;;;;5089872;28;20660;-83
2022/12/15 03:33:40;;;;;;;4.38;1.08;;;26.10;64.10;;;;;;5088852;28;20215;-83
2022/12/15 03:36:11;;;;;;;5.28;1.40;;;26.20;64.80;;;;;;5090788;28;20248;-84
2022/12/15 03:38:42;;;;;;;5.82;1.20;;;26.40;64.60;;;;;;5089925;28;20199;-83
2022/12/15 03:41:13;;;;;;;9.25;1.20;;;26.40;61.80;;;;;;5091041;28;20226;-85
2022/12/15 03:43:45;;;;;;;4.57;1.13;;;26.40;62.40;;;;;;5082420;28;20659;-84
2022/12/15 03:46:15;;;;;;;6.72;1.10;;;26.40;61.70;;;;;;5075610;28;20222;-84
2022/12/15 03:48:51;;;;;;;9.07;1.17;;;26.30;59.30;;;;;;5088970;28;20654;-84
2022/12/15 03:51:22;;;;;;;7.25;1.20;;;26.40;63.20;;;;;;5091902;28;20210;-85
2022/12/15 03:53:53;;;;;;;7.03;1.02;;;26.30;61.70;;;;;;5091743;28;20670;-83
2022/12/15 03:56:24;;;;;;;4.78;1.23;;;26.20;60.20;;;;;;5090695;28;20199;-84
2022/12/15 03:58:56;;;;;;;4.50;1.10;;;26.20;63.10;;;;;;5091010;28;20238;-83
2022/12/15 04:01:31;;;;;;;3.90;1.10;;;26.20;62.20;;;;;;5096650;28;20597;-85
2022/12/15 04:04:07;;;;;;;9.82;1.48;;;26.30;62.30;;;;;;5095922;28;20195;-83
2022/12/15 04:06:38;;;;;;;4.70;1.27;;;26.30;62.20;;;;;;5093346;28;20201;-84
2022/12/15 04:09:09;;;;;;;7.53;1.48;;;26.30;62.50;;;;;;5098589;28;20286;-83
2022/12/15 04:11:39;;;;;;;6.68;1.13;;;26.50;60.70;;;;;;5097947;28;20199;-84
2022/12/15 04:14:12;;;;;;;4.07;1.02;;;26.40;61.30;;;;;;5095187;28;20538;-83
2022/12/15 04:16:42;;;;;;;5.30;1.00;;;26.70;61.60;;;;;;5097035;28;20191;-85
2022/12/15 04:22:04;;;;;;;4.95;1.25;;;26.80;60.00;;;;;;5077204;28;20592;-84
2022/12/15 05:31:53;;;;;;;8.02;1.25;;;25.80;66.40;;;;;;5090994;28;20579;-86
2022/12/15 05:34:26;;;;;;;6.47;1.40;;;26.30;66.40;;;;;;5095059;28;20231;-85
2022/12/15 05:36:58;;;;;;;4.35;1.20;;;26.90;65.90;;;;;;5093004;28;20195;-85
2022/12/15 05:39:29;;;;;;;8.40;1.35;;;27.50;64.30;;;;;;5092600;28;20199;-85
2022/12/15 05:42:02;;;;;;;5.53;1.42;;;28.00;63.10;;;;;;5082916;28;20192;-86
2022/12/15 05:44:33;;;;;;;7.15;1.70;;;28.20;62.10;;;;;;5085324;28;20202;-86
2022/12/15 05:47:04;;;;;;;6.82;1.58;;;28.30;62.60;;;;;;5093988;28;20211;-85
2022/12/15 05:49:35;;;;;;;8.43;1.52;;;28.70;61.60;;;;;;5093857;28;20579;-84
2022/12/15 05:52:05;;;;;;;10.25;1.98;;;28.60;62.50;;;;;;5092367;28;20188;-86
2022/12/15 05:54:36;;;;;;;6.30;1.48;;;28.80;61.10;;;;;;5093740;28;20668;-85
2022/12/15 05:57:09;;;;;;;6.30;1.60;;;28.90;59.90;;;;;;5093286;28;20638;-85
2022/12/15 05:59:40;;;;;;;8.52;1.88;;;28.70;60.80;;;;;;5097799;28;20198;-85
2022/12/15 06:02:10;;;;;;;5.72;1.50;;;28.80;59.10;;;;;;5098282;28;20435;-85
2022/12/15 06:04:41;;;;;;;6.35;1.50;;;29.00;59.50;;;;;;5094462;28;20199;-84
2022/12/15 06:07:12;;;;;;;7.53;1.75;;;28.90;58.70;;;;;;5078277;28;20277;-86
2022/12/15 06:09:43;;;;;;;7.38;1.52;;;28.20;59.40;;;;;;5093205;28;20199;-86
2022/12/15 06:12:17;;;;;;;5.90;1.60;;;27.40;61.10;;;;;;5093291;28;20206;-87
2022/12/15 06:14:48;;;;;;;6.82;1.60;;;27.40;60.80;;;;;;5100635;28;20229;-86
2022/12/15 06:17:19;;;;;;;7.22;1.42;;;26.70;62.90;;;;;;5091894;28;20692;-86
2022/12/15 06:19:50;;;;;;;6.18;1.73;;;26.20;63.60;;;;;;5092726;28;20600;-86
2022/12/15 06:22:21;;;;;;;7.30;1.85;;;25.60;64.30;;;;;;5091138;28;20224;-85
2022/12/15 06:24:54;;;;;;;6.63;1.67;;;25.10;66.10;;;;;;5088701;28;20677;-85
2022/12/15 06:27:28;;;;;;;6.55;1.58;;;24.70;69.20;;;;;;5092732;28;20202;-85
2022/12/15 06:29:58;;;;;;;7.45;1.52;;;24.50;70.90;;;;;;5095729;28;20199;-85
2022/12/15 06:32:29;;;;;;;8.85;1.52;;;24.20;72.80;;;;;;5091628;28;20192;-85
2022/12/15 06:35:00;;;;;;;9.38;1.80;;;23.90;72.40;;;;;;5093816;28;20231;-85
2022/12/15 06:37:31;;;;;;;3.35;1.50;;;23.70;71.60;;;;;;5103910;28;20195;-84
2022/12/15 06:40:02;;;;;;;9.13;1.50;;;24.20;72.20;;;;;;5096838;28;20361;-84
2022/12/15 06:42:35;;;;;;;5.43;1.70;;;24.70;71.60;;;;;;5091903;28;20571;-85
2022/12/15 06:45:07;;;;;;;5.28;1.50;;;25.60;68.80;;;;;;5091556;28;20199;-85
2022/12/15 06:47:38;;;;;;;5.70;1.58;;;26.30;67.00;;;;;;5090715;28;20211;-85
2022/12/15 06:50:11;;;;;;;6.00;1.98;;;26.90;66.70;;;;;;5090865;28;20205;-85
2022/12/15 06:52:42;;;;;;;7.43;2.22;;;27.70;63.20;;;;;;5093611;28;20268;-85
2022/12/15 06:55:13;;;;;;;6.18;1.60;;;28.00;62.00;;;;;;5087578;28;20614;-85
2022/12/15 06:57:48;;;;;;;6.57;1.30;;;28.20;59.70;;;;;;5090603;28;20674;-86
2022/12/15 07:00:19;;;;;;;4.55;1.40;;;28.40;59.50;;;;;;5092782;28;20518;-85
2022/12/15 07:02:51;;;;;;;7.57;1.90;;;28.20;59.60;;;;;;5081579;28;20191;-84
2022/12/15 07:05:22;;;;;;;8.88;2.13;;;28.40;60.70;;;;;;5091071;28;20248;-85
2022/12/15 07:07:55;;;;;;;9.82;2.00;;;28.50;60.70;;;;;;5091048;28;20209;-85
2022/12/15 07:10:25;;;;;;;8.82;2.00;;;28.70;61.10;;;;;;5089909;28;20195;-83
2022/12/15 07:13:01;;;;;;;11.10;2.63;;;28.90;61.80;;;;;;5074128;28;20232;-86
2022/12/15 07:15:32;;;;;;;9.52;2.13;;;28.90;61.20;;;;;;5092878;28;20306;-85
2022/12/15 07:18:03;;;;;;;6.82;2.28;;;28.50;61.20;;;;;;5100774;28;20199;-85
2022/12/15 07:20:34;;;;;;;9.60;2.15;;;28.20;62.60;;;;;;5094475;28;20272;-85
2022/12/15 07:23:08;;;;;;;10.43;2.17;;;28.30;62.50;;;;;;5090309;28;20213;-85
2022/12/15 07:25:40;;;;;;;8.50;2.70;;;28.20;63.00;;;;;;5091269;28;20230;-84
2022/12/15 07:28:12;;;;;;;8.40;3.25;;;28.50;63.30;;;;;;5091762;28;20222;-85
2022/12/15 07:30:44;;;;;;;9.23;2.40;;;28.40;63.40;;;;;;5094099;28;20203;-83
2022/12/15 07:33:15;;;;;;;7.80;2.10;;;28.40;62.80;;;;;;5094109;28;20293;-84
2022/12/15 07:35:53;;;;;;;7.40;2.08;;;28.20;62.40;;;;;;5091458;28;20199;-83
2022/12/15 07:38:24;;;;;;;8.13;2.83;;;28.30;62.30;;;;;;5085501;28;20217;-85
2022/12/15 07:40:55;;;;;;;8.45;2.25;;;28.20;62.10;;;;;;5089503;28;20276;-84
2022/12/15 07:43:28;;;;;;;9.70;2.10;;;28.30;61.50;;;;;;5086997;28;20203;-84
2022/12/15 07:45:59;;;;;;;11.88;2.47;;;28.20;61.90;;;;;;5077417;28;20217;-85
2022/12/15 07:48:30;;;;;;;9.13;2.30;;;28.10;60.70;;;;;;5090650;28;20658;-84
2022/12/15 07:51:08;;;;;;;11.07;2.20;;;27.70;61.80;;;;;;5085142;28;20195;-85
2022/12/15 07:53:39;;;;;;;9.73;2.08;;;27.30;63.00;;;;;;5091680;28;20205;-84
2022/12/15 07:56:12;;;;;;;11.13;2.40;;;26.80;64.90;;;;;;5094843;28;20206;-85
2022/12/15 07:58:44;;;;;;;7.95;2.00;;;26.10;66.80;;;;;;5091387;28;20599;-85
2022/12/15 08:01:16;;;;;;;10.43;2.78;;;25.90;68.00;;;;;;5090674;28;20712;-84
2022/12/15 08:03:47;;;;;;;11.60;2.53;;;25.60;69.10;;;;;;5089006;28;20192;-84
2022/12/15 08:06:20;;;;;;;8.52;2.15;;;24.90;71.00;;;;;;5091609;28;20328;-86
2022/12/15 08:08:51;;;;;;;11.68;2.53;;;24.40;74.40;;;;;;5091389;28;20248;-85
2022/12/15 08:11:25;;;;;;;13.27;2.35;;;23.90;76.50;;;;;;5090985;28;20294;-85
2022/12/15 08:13:57;;;;;;;10.85;2.50;;;23.50;79.10;;;;;;5091048;28;20187;-85
2022/12/15 08:16:28;;;;;;;12.23;3.15;;;23.10;83.10;;;;;;5087369;28;20819;-83
2022/12/15 08:19:00;;;;;;;10.27;2.60;;;22.80;85.10;;;;;;5088192;28;20196;-82
2022/12/15 08:21:32;;;;;;;12.43;2.58;;;22.70;87.70;;;;;;5078303;28;20326;-82
2022/12/15 08:24:03;;;;;;;9.32;2.72;;;22.60;90.10;;;;;;5070839;28;20192;-82
2022/12/15 08:26:34;;;;;;;11.68;2.80;;;22.50;91.50;;;;;;5089561;28;20669;-82
2022/12/15 08:29:09;;;;;;;11.68;2.35;;;22.30;91.90;;;;;;5090671;28;20195;-82
2022/12/15 08:31:39;;;;;;;13.57;2.72;;;22.10;91.90;;;;;;5090754;28;20282;-82
2022/12/15 08:34:11;;;;;;;13.60;2.90;;;22.00;92.80;;;;;;5088318;28;20214;-82
2022/12/15 08:36:42;;;;;;;14.30;3.15;;;21.90;94.00;;;;;;5078912;28;20306;-83
2022/12/15 08:39:13;;;;;;;13.23;2.70;;;21.60;94.50;;;;;;5090444;28;20206;-83
2022/12/15 08:41:43;;;;;;;12.98;2.50;;;21.60;95.20;;;;;;5089382;28;20229;-82
2022/12/15 08:44:16;;;;;;;12.18;2.67;;;21.50;95.90;;;;;;5090298;28;20202;-82
2022/12/15 08:46:47;;;;;;;8.88;2.70;;;21.40;97.00;;;;;;5083542;28;20219;-82
2022/12/15 08:49:19;;;;;;;13.55;2.50;;;21.40;98.00;;;;;;5089739;28;20192;-84
2022/12/15 08:51:50;;;;;;;12.25;3.00;;;21.40;98.70;;;;;;5090477;28;20572;-84
2022/12/15 08:54:23;;;;;;;13.20;2.33;;;21.10;99.30;;;;;;5081413;28;20196;-83
2022/12/15 08:56:53;;;;;;;14.63;2.70;;;21.20;99.40;;;;;;5091838;28;20207;-82
2022/12/15 08:59:26;;;;;;;10.77;2.53;;;21.10;99.80;;;;;;5082685;28;20196;-82
2022/12/15 09:01:57;;;;;;;8.63;2.35;;;21.10;99.90;;;;;;5087536;28;20705;-82
2022/12/15 09:04:28;;;;;;;11.88;2.50;;;21.00;99.90;;;;;;5100502;28;20541;-82
2022/12/15 09:06:59;;;;;;;8.57;2.20;;;20.90;99.90;;;;;;5082639;28;20202;-82
2022/12/15 09:09:30;;;;;;;12.18;2.60;;;20.90;99.90;;;;;;5082881;28;20224;-82
2022/12/15 09:12:02;;;;;;;7.65;2.00;;;20.90;99.90;;;;;;5081760;28;20207;-82
2022/12/15 09:14:35;;;;;;;12.48;3.10;;;20.80;99.90;;;;;;5097320;28;20311;-82
2022/12/15 09:17:06;;;;;;;12.43;3.17;;;20.90;99.90;;;;;;5095807;28;20290;-82
2022/12/15 09:19:37;;;;;;;15.88;2.97;;;20.90;99.90;;;;;;5092002;28;20294;-82
2022/12/15 09:22:09;;;;;;;10.75;2.67;;;20.90;99.90;;;;;;5091838;28;20220;-82
2022/12/15 09:24:41;;;;;;;12.38;2.72;;;20.80;99.90;;;;;;5075464;28;20196;-82
2022/12/15 09:27:11;;;;;;;11.60;2.95;;;20.80;99.90;;;;;;5088009;28;20642;-82
2022/12/15 09:29:47;;;;;;;11.05;2.65;;;20.70;99.90;;;;;;5089146;28;20214;-82
2022/12/15 09:32:18;;;;;;;10.63;2.83;;;20.60;99.90;;;;;;5090982;28;20237;-82
2022/12/15 09:34:49;;;;;;;12.02;3.15;;;20.60;99.90;;;;;;5095851;28;20229;-82
2022/12/15 09:37:26;;;;;;;16.10;3.15;;;20.60;99.90;;;;;;5093400;28;20215;-84
2022/12/15 09:39:59;;;;;;;11.77;3.15;;;20.50;99.90;;;;;;5096083;28;20272;-83
2022/12/15 09:42:32;;;;;;;14.02;3.42;;;20.40;99.90;;;;;;5095325;28;20231;-82
2022/12/15 09:45:10;;;;;;;13.43;2.90;;;20.40;99.90;;;;;;5093521;28;20304;-82
2022/12/15 09:47:48;;;;;;;16.02;4.35;;;20.40;99.90;;;;;;5098042;28;20255;-84
2022/12/15 09:50:20;;;;;;;18.95;3.30;;;20.30;99.90;;;;;;5091256;28;20277;-83
2022/12/15 09:52:56;;;;;;;14.02;2.90;;;20.30;99.90;;;;;;5096345;28;20201;-84
2022/12/15 09:55:30;;;;;;;10.45;2.63;;;20.30;99.90;;;;;;5090598;28;20240;-81
2022/12/15 09:58:06;;;;;;;10.75;2.65;;;20.10;99.90;;;;;;5097017;28;20219;-83
2022/12/15 10:00:42;;;;;;;13.77;2.75;;;20.00;99.90;;;;;;5094594;28;20199;-82
2022/12/15 10:03:46;;;;;;;12.35;2.58;;;19.90;99.90;;;;;;5093953;28;20293;-83
2022/12/15 10:06:20;;;;;;;12.70;2.75;;;20.00;99.90;;;;;;5093199;28;20275;-82
2022/12/15 10:09:01;;;;;;;11.55;2.53;;;20.00;99.90;;;;;;5095133;28;20286;-82
2022/12/15 10:11:50;;;;;;;11.88;2.70;;;20.00;99.90;;;;;;5090619;28;20200;-82
2022/12/15 10:14:41;;;;;;;12.05;2.15;;;20.00;99.90;;;;;;5076461;28;20283;-83
2022/12/15 10:17:27;;;;;;;16.50;3.00;;;20.00;99.90;;;;;;5095993;28;20207;-83
2022/12/15 10:20:04;;;;;;;12.55;2.22;;;20.10;99.90;;;;;;5096277;28;20207;-82
2022/12/15 10:22:36;;;;;;;16.75;2.58;;;20.10;99.90;;;;;;5092462;28;20225;-82
2022/12/15 10:25:24;;;;;;;12.50;2.65;;;20.00;99.90;;;;;;5098475;28;20199;-82
2022/12/15 10:28:10;;;;;;;11.82;2.75;;;19.90;99.90;;;;;;5097812;28;20195;-82
2022/12/15 10:30:47;;;;;;;9.88;2.55;;;19.90;99.90;;;;;;5095875;28;20199;-81
2022/12/15 10:33:34;;;;;;;8.52;1.70;;;19.70;99.90;;;;;;5095388;28;20254;-84
2022/12/15 10:36:10;;;;;;;8.48;1.63;;;19.60;99.90;;;;;;5094833;28;20195;-83
2022/12/15 10:38:44;;;;;;;10.07;2.40;;;19.60;99.90;;;;;;5091034;28;20195;-83
2022/12/15 10:41:16;;;;;;;10.90;2.15;;;19.70;99.90;;;;;;5097256;28;20209;-82
2022/12/15 10:43:48;;;;;;;8.32;2.35;;;19.70;99.90;;;;;;5099117;28;20737;-83
2022/12/15 10:46:22;;;;;;;10.85;2.40;;;19.70;99.90;;;;;;5097615;28;20215;-82
2022/12/15 10:48:58;;;;;;;11.18;2.38;;;19.70;99.90;;;;;;5091901;28;20199;-82
2022/12/15 10:51:31;;;;;;;12.52;2.00;;;19.70;99.90;;;;;;5090135;28;20203;-81
2022/12/15 10:54:14;;;;;;;9.77;2.40;;;19.60;99.90;;;;;;5084128;28;20203;-82
2022/12/15 10:56:51;;;;;;;11.30;2.17;;;19.60;99.90;;;;;;5091875;28;20277;-81
2022/12/15 10:59:31;;;;;;;9.23;1.70;;;19.60;99.90;;;;;;5093549;28;20213;-82
2022/12/15 11:02:30;;;;;;;10.52;1.58;;;19.60;99.90;;;;;;5093323;28;20221;-81
2022/12/15 11:05:06;;;;;;;8.82;2.00;;;19.60;99.90;;;;;;5094010;28;20207;-82
2022/12/15 11:07:41;;;;;;;9.65;2.15;;;19.50;99.90;;;;;;5092316;28;20653;-81
2022/12/15 11:10:25;;;;;;;14.23;2.10;;;19.50;99.90;;;;;;5078068;28;20229;-81
2022/12/15 11:13:03;;;;;;;10.90;2.08;;;19.40;99.90;;;;;;5093119;28;20202;-81
2022/12/15 11:15:42;;;;;;;11.68;2.28;;;19.40;99.90;;;;;;5093330;28;20237;-81
2022/12/15 11:18:23;;;;;;;9.75;2.30;;;19.40;99.90;;;;;;5088771;28;20286;-81
2022/12/15 11:21:01;;;;;;;9.75;2.13;;;19.30;99.90;;;;;;5087515;28;20187;-82
2022/12/15 11:24:01;;;;;;;15.00;2.20;;;19.30;99.90;;;;;;5096397;28;20246;-82
2022/12/15 11:26:50;;;;;;;12.57;2.42;;;19.40;99.90;;;;;;5093614;28;20199;-81
2022/12/15 11:29:33;;;;;;;12.57;2.30;;;19.30;99.90;;;;;;5084971;28;20206;-82
2022/12/15 11:32:04;;;;;;;8.02;1.70;;;19.40;99.90;;;;;;5090198;28;20219;-81
2022/12/15 11:34:39;;;;;;;10.00;1.42;;;19.40;99.90;;;;;;5077318;28;20279;-81
2022/12/15 11:37:35;;;;;;;9.98;1.60;;;19.40;99.90;;;;;;5079005;28;20198;-81
2022/12/15 11:40:35;;;;;;;9.90;1.83;;;19.30;99.90;;;;;;5093864;28;20195;-82
2022/12/15 11:43:29;;;;;;;8.75;1.90;;;19.30;99.90;;;;;;5081731;28;20215;-81
2022/12/15 11:46:22;;;;;;;9.52;1.95;;;19.20;99.90;;;;;;5083355;28;20199;-81
2022/12/15 11:49:21;;;;;;;9.93;2.13;;;19.30;99.90;;;;;;5092452;28;20670;-81
2022/12/15 11:51:56;;;;;;;11.05;2.10;;;19.30;99.90;;;;;;5072573;28;20612;-81
2022/12/15 11:54:34;;;;;;;7.63;1.80;;;19.30;99.90;;;;;;5072917;28;20206;-82
2022/12/15 11:57:20;;;;;;;12.20;2.20;;;19.20;99.90;;;;;;5071936;28;20200;-81
2022/12/15 12:00:04;;;;;;;8.40;1.85;;;19.20;99.90;;;;;;5096305;28;20195;-81
2022/12/15 12:02:51;;;;;;;9.10;1.80;;;19.20;99.90;;;;;;5095043;28;20289;-81
2022/12/15 12:05:38;;;;;;;7.97;1.77;;;19.20;99.90;;;;;;5092238;28;20198;-82
2022/12/15 12:08:26;;;;;;;6.20;1.38;;;19.20;99.90;;;;;;5092051;28;20248;-81
2022/12/15 12:11:06;;;;;;;8.57;1.70;;;19.20;99.90;;;;;;5090637;28;20264;-82
2022/12/15 12:13:47;;;;;;;10.32;1.90;;;19.30;99.90;;;;;;5090978;28;20220;-81
2022/12/15 12:16:33;;;;;;;8.32;1.90;;;19.20;99.90;;;;;;5087876;28;20696;-81
2022/12/15 12:19:06;;;;;;;14.70;2.70;;;19.20;99.90;;;;;;5090963;28;20199;-80
2022/12/15 12:21:42;;;;;;;11.95;2.22;;;19.10;99.90;;;;;;5085306;28;20678;-80
2022/12/15 12:24:16;;;;;;;7.88;1.65;;;19.00;99.90;;;;;;5090118;28;20231;-82
2022/12/15 12:26:52;;;;;;;7.32;1.45;;;18.90;99.90;;;;;;5090196;28;20205;-83
2022/12/15 12:29:27;;;;;;;8.38;1.60;;;18.90;99.90;;;;;;5092635;28;20199;-84
2022/12/15 12:32:05;;;;;;;10.57;1.73;;;18.80;99.90;;;;;;5094535;28;20297;-83
2022/12/15 12:34:50;;;;;;;8.55;1.60;;;18.80;99.90;;;;;;5095670;28;20238;-83
2022/12/15 12:37:26;;;;;;;6.45;1.80;;;18.70;99.90;;;;;;5095584;28;20266;-83
2022/12/15 12:40:04;;;;;;;12.63;2.47;;;18.70;99.90;;;;;;5095892;28;20553;-81
2022/12/15 12:42:42;;;;;;;11.68;1.90;;;18.50;99.90;;;;;;5096029;28;20650;-81
2022/12/15 12:45:16;;;;;;;8.30;1.80;;;18.50;99.90;;;;;;5094924;28;20195;-82
2022/12/15 12:47:52;;;;;;;9.60;1.67;;;18.40;99.90;;;;;;5094080;28;20708;-82
2022/12/15 12:50:25;;;;;;;6.53;1.85;;;18.40;99.90;;;;;;5095978;28;20187;-82
2022/12/15 12:52:59;;;;;;;9.65;1.65;;;18.30;99.90;;;;;;5092623;28;20196;-82
2022/12/15 12:55:40;;;;;;;11.50;2.03;;;18.30;99.90;;;;;;5073658;28;20226;-82
2022/12/15 12:58:40;;;;;;;9.80;1.58;;;18.40;99.90;;;;;;5093174;28;20615;-82
2022/12/15 13:01:26;;;;;;;9.52;1.70;;;18.30;99.90;;;;;;5076487;28;20275;-81
2022/12/15 13:04:11;;;;;;;10.07;1.70;;;18.30;99.90;;;;;;5098389;28;20219;-82
2022/12/15 13:07:04;;;;;;;8.30;1.77;;;18.20;99.90;;;;;;5093597;28;20322;-81
2022/12/15 13:09:43;;;;;;;10.60;1.85;;;18.00;99.90;;;;;;5087960;28;20282;-82
2022/12/15 13:12:47;;;;;;;9.45;2.10;;;17.80;99.90;;;;;;5078136;28;20196;-82
2022/12/15 13:15:32;;;;;;;6.82;1.60;;;17.50;99.90;;;;;;5065504;28;20232;-82
2022/12/15 13:18:08;;;;;;;9.73;1.70;;;17.50;99.90;;;;;;5077031;28;20200;-81
2022/12/15 13:20:40;;;;;;;7.72;1.88;;;17.40;99.90;;;;;;5075992;28;20210;-81
2022/12/15 13:23:43;;;;;;;6.50;1.55;;;17.40;99.90;;;;;;5073376;28;20232;-80
2022/12/15 13:26:19;;;;;;;7.53;1.88;;;17.40;99.90;;;;;;5074692;28;20670;-81
2022/12/15 13:28:59;;;;;;;7.43;1.60;;;17.40;99.90;;;;;;5090848;28;20187;-80
2022/12/15 13:31:44;;;;;;;9.77;1.88;;;17.50;99.90;;;;;;5098324;28;20282;-81
2022/12/15 13:34:24;;;;;;;5.82;1.30;;;17.50;99.90;;;;;;5090428;28;20200;-80
2022/12/15 13:36:59;;;;;;;7.15;1.50;;;17.50;99.90;;;;;;5096662;28;20209;-81
2022/12/15 13:39:59;;;;;;;8.23;1.98;;;17.60;99.90;;;;;;5092644;28;20680;-80
2022/12/15 13:42:34;;;;;;;8.25;1.80;;;17.60;99.90;;;;;;5087452;28;20598;-81
2022/12/15 13:45:30;;;;;;;10.88;2.10;;;17.60;99.90;;;;;;5094563;28;20561;-80
2022/12/15 13:48:07;;;;;;;14.45;1.70;;;17.50;99.90;;;;;;5093682;28;20249;-80
2022/12/15 13:50:48;;;;;;;10.18;1.70;;;17.50;99.90;;;;;;5093252;28;20195;-81
2022/12/15 13:53:24;;;;;;;11.63;2.10;;;17.40;99.90;;;;;;5093388;28;20210;-81
2022/12/15 13:56:07;;;;;;;11.15;1.75;;;17.40;99.90;;;;;;5095042;28;20558;-80
2022/12/15 13:58:46;;;;;;;6.20;1.90;;;17.30;99.90;;;;;;5083564;28;20290;-80
2022/12/15 14:01:28;;;;;;;7.95;1.65;;;17.10;99.90;;;;;;5092257;28;20205;-80
2022/12/15 14:04:08;;;;;;;7.00;1.58;;;17.10;99.90;;;;;;5084164;28;20222;-80
2022/12/15 14:06:42;;;;;;;7.22;1.40;;;17.20;99.90;;;;;;5091908;28;20199;-80
2022/12/15 14:09:18;;;;;;;8.52;1.40;;;17.20;99.90;;;;;;5078382;28;20191;-80
2022/12/15 14:11:50;;;;;;;4.10;1.20;;;17.30;99.90;;;;;;5091103;28;20234;-80
2022/12/15 14:14:26;;;;;;;10.98;1.55;;;17.30;99.90;;;;;;5085290;28;20666;-80
2022/12/15 14:17:02;;;;;;;9.15;1.90;;;17.30;99.90;;;;;;5092139;28;20228;-80
2022/12/15 14:19:45;;;;;;;9.30;1.77;;;17.40;99.90;;;;;;5086170;28;20195;-81
2022/12/15 14:22:24;;;;;;;9.43;1.92;;;17.50;99.90;;;;;;5089904;28;20199;-80
2022/12/15 14:25:00;;;;;;;10.48;1.95;;;17.40;99.90;;;;;;5091179;28;20198;-80
2022/12/15 14:27:32;;;;;;;10.93;1.75;;;17.30;99.90;;;;;;5095420;28;20195;-81
2022/12/15 14:30:21;;;;;;;7.40;1.98;;;17.30;99.90;;;;;;5091054;28;20681;-81
2022/12/15 14:32:55;;;;;;;8.82;1.60;;;17.20;99.90;;;;;;5090745;28;20206;-80
2022/12/15 14:35:33;;;;;;;11.93;1.73;;;17.20;99.90;;;;;;5089865;28;20194;-80
2022/12/15 14:38:08;;;;;;;8.43;1.95;;;17.30;99.90;;;;;;5090400;28;20245;-81
2022/12/15 14:40:40;;;;;;;10.32;1.98;;;17.20;99.90;;;;;;5091149;28;20198;-80
2022/12/15 14:43:18;;;;;;;5.38;1.42;;;17.10;99.90;;;;;;5085134;28;20219;-81
2022/12/15 14:45:51;;;;;;;6.97;1.50;;;17.10;99.90;;;;;;5096039;28;20733;-79
2022/12/15 14:48:29;;;;;;;8.35;1.98;;;17.10;99.90;;;;;;5093772;28;20634;-80
2022/12/15 14:51:05;;;;;;;5.22;1.60;;;17.20;99.90;;;;;;5088703;28;20199;-79
2022/12/15 14:53:37;;;;;;;12.32;1.83;;;17.20;99.90;;;;;;5091684;28;20209;-80
2022/12/15 14:56:30;;;;;;;9.25;1.60;;;17.20;99.90;;;;;;5089193;28;20205;-80
2022/12/15 14:59:05;;;;;;;9.32;1.90;;;17.20;99.90;;;;;;5091027;28;20230;-80
2022/12/15 15:01:39;;;;;;;3.83;1.17;;;17.10;99.90;;;;;;5091013;28;20205;-81
2022/12/15 15:04:27;;;;;;;4.85;1.10;;;17.10;99.90;;;;;;5090059;28;20311;-81
2022/12/15 15:07:02;;;;;;;10.18;1.40;;;17.10;99.90;;;;;;5089963;28;20248;-81
2022/12/15 15:09:34;;;;;;;8.07;1.40;;;17.20;99.90;;;;;;5090402;28;20297;-80
2022/12/15 15:12:07;;;;;;;6.03;1.45;;;17.10;99.90;;;;;;5089731;28;20195;-81
2022/12/15 15:14:43;;;;;;;6.57;1.52;;;17.10;99.90;;;;;;5090658;28;20259;-80
2022/12/15 15:17:30;;;;;;;5.35;1.30;;;16.90;99.90;;;;;;5076925;28;20196;-80
2022/12/15 15:20:04;;;;;;;9.13;1.48;;;16.90;99.90;;;;;;5079424;28;20210;-80
2022/12/15 15:22:41;;;;;;;4.60;1.25;;;17.00;99.90;;;;;;5090381;28;20634;-80
2022/12/15 15:25:36;;;;;;;7.05;1.52;;;16.80;99.90;;;;;;5092312;28;20650;-79
2022/12/15 15:28:16;;;;;;;7.18;1.52;;;16.90;99.90;;;;;;5092396;28;20633;-80
2022/12/15 15:30:49;;;;;;;7.93;1.73;;;16.70;99.90;;;;;;5090292;28;20199;-80
2022/12/15 15:33:21;;;;;;;6.10;1.40;;;16.70;99.90;;;;;;5086484;28;20738;-80
2022/12/15 15:35:55;;;;;;;7.28;1.60;;;16.80;99.90;;;;;;5091072;28;20227;-80
2022/12/15 15:38:31;;;;;;;7.30;1.73;;;16.80;99.90;;;;;;5090516;28;20666;-80
2022/12/15 15:41:17;;;;;;;5.50;1.45;;;16.70;99.90;;;;;;5089783;28;20202;-80
2022/12/15 15:43:53;;;;;;;6.30;1.38;;;16.70;99.90;;;;;;5088347;28;20226;-80
2022/12/15 15:46:26;;;;;;;9.45;1.60;;;16.70;99.90;;;;;;5089739;28;20237;-80
2022/12/15 15:49:00;;;;;;;5.65;1.20;;;16.70;99.90;;;;;;5090463;28;20723;-80